createdAt,value
2023-04-21T00:01:12.795Z,7.70
2023-04-21T00:03:41.991Z,7.80
2023-04-21T00:06:10.635Z,7.80
2023-04-21T00:08:40.438Z,7.70
2023-04-21T00:11:08.793Z,7.70
2023-04-21T00:13:38.949Z,7.60
2023-04-21T00:16:07.850Z,7.60
2023-04-21T00:18:35.949Z,7.60
2023-04-21T00:21:04.027Z,7.60
2023-04-21T00:23:32.151Z,7.70
2023-04-21T00:26:02.689Z,7.70
2023-04-21T00:28:31.211Z,7.70
2023-04-21T00:31:00.870Z,7.70
2023-04-21T00:33:28.932Z,7.60
2023-04-21T00:43:38.547Z,7.70
2023-04-21T00:46:08.009Z,7.70
2023-04-21T00:52:32.662Z,7.60
2023-04-21T00:55:01.428Z,7.60
2023-04-21T00:57:29.847Z,7.60
2023-04-21T00:59:57.880Z,7.60
2023-04-21T01:02:28.583Z,7.60
2023-04-21T01:04:57.452Z,7.60
2023-04-21T01:07:26.786Z,7.60
2023-04-21T01:09:54.921Z,7.60
2023-04-21T01:12:23.123Z,7.60
2023-04-21T01:14:51.480Z,7.60
2023-04-21T01:17:20.158Z,7.60
2023-04-21T01:19:49.887Z,7.60
2023-04-21T01:22:19.357Z,7.60
2023-04-21T01:24:49.312Z,7.60
2023-04-21T01:27:19.765Z,7.60
2023-04-21T01:29:49.468Z,7.60
2023-04-21T01:32:20.835Z,7.60
2023-04-21T01:34:49.565Z,7.60
2023-04-21T01:37:21.014Z,7.60
2023-04-21T01:39:52.579Z,7.60
2023-04-21T01:42:21.492Z,7.60
2023-04-21T01:44:49.870Z,7.60
2023-04-21T01:47:18.594Z,7.70
2023-04-21T01:49:46.778Z,7.70
2023-04-21T01:52:14.833Z,7.80
2023-04-21T01:54:44.382Z,7.80
2023-04-21T02:08:34.914Z,7.60
2023-04-21T02:26:28.021Z,7.70
2023-04-21T02:28:56.089Z,7.60
2023-04-21T02:31:24.358Z,7.60
2023-04-21T02:33:52.450Z,7.60
2023-04-21T02:36:20.793Z,7.70
2023-04-21T02:38:48.866Z,7.80
2023-04-21T02:41:16.901Z,7.80
2023-04-21T02:43:46.338Z,7.90
2023-04-21T02:46:14.441Z,7.80
2023-04-21T02:48:42.525Z,7.80
2023-04-21T02:51:13.949Z,7.90
2023-04-21T02:53:42.061Z,7.80
2023-04-21T02:56:10.750Z,7.70
2023-04-21T02:58:39.281Z,7.70
2023-04-21T03:06:29.630Z,7.70
2023-04-21T03:08:57.797Z,7.70
2023-04-21T03:11:25.993Z,7.80
2023-04-21T03:13:54.090Z,7.70
2023-04-21T03:16:22.983Z,7.70
2023-04-21T03:18:51.194Z,7.70
2023-04-21T03:21:19.292Z,7.70
2023-04-21T03:23:48.769Z,7.70
2023-04-21T03:26:16.862Z,7.70
2023-04-21T03:28:44.935Z,7.80
2023-04-21T03:31:13.015Z,7.70
2023-04-21T03:33:41.259Z,7.70
2023-04-21T03:36:09.846Z,7.70
2023-04-21T03:38:37.919Z,7.80
2023-04-21T03:41:07.514Z,7.80
2023-04-21T03:43:36.261Z,7.80
2023-04-21T03:46:04.498Z,7.80
2023-04-21T04:01:08.002Z,7.80
2023-04-21T04:03:36.232Z,7.80
2023-04-21T04:06:04.526Z,7.80
2023-04-21T04:08:32.671Z,7.80
2023-04-21T04:11:00.850Z,7.80
2023-04-21T04:13:29.491Z,7.80
2023-04-21T04:15:58.749Z,7.80
2023-04-21T04:18:28.291Z,7.90
2023-04-21T04:20:56.387Z,7.90
2023-04-21T04:23:24.524Z,7.90
2023-04-21T04:25:52.794Z,7.80
2023-04-21T04:28:22.802Z,7.80
2023-04-21T04:30:51.036Z,7.80
2023-04-21T04:33:19.176Z,7.80
2023-04-21T04:35:48.701Z,7.80
2023-04-21T04:38:17.098Z,7.80
2023-04-21T04:40:45.470Z,7.80
2023-04-21T04:43:13.568Z,7.80
2023-04-21T04:45:43.892Z,7.80
2023-04-21T04:48:11.985Z,7.80
2023-04-21T04:50:40.106Z,7.80
2023-04-21T04:53:09.571Z,7.80
2023-04-21T04:55:38.237Z,7.80
2023-04-21T04:58:06.902Z,7.80
2023-04-21T05:00:35.034Z,7.90
2023-04-21T05:03:03.227Z,8.00
2023-04-21T05:05:31.546Z,7.90
2023-04-21T05:07:59.679Z,7.90
2023-04-21T05:10:29.225Z,7.90
2023-04-21T05:12:57.281Z,7.90
2023-04-21T05:15:25.465Z,7.90
2023-04-21T05:17:53.592Z,8.00
2023-04-21T05:20:21.833Z,8.00
2023-04-21T05:22:49.944Z,8.00
2023-04-21T05:25:18.131Z,8.00
2023-04-21T05:27:48.353Z,8.10
2023-04-21T05:30:16.474Z,8.20
2023-04-21T05:32:44.686Z,8.10
2023-04-21T05:35:12.795Z,8.20
2023-04-21T05:37:40.916Z,8.10
2023-04-21T05:40:09.601Z,8.10
2023-04-21T05:42:37.685Z,8.10
2023-04-21T05:45:08.589Z,8.10
2023-04-21T05:47:37.511Z,8.10
2023-04-21T05:50:06.185Z,8.20
2023-04-21T05:52:35.213Z,8.20
2023-04-21T05:55:03.382Z,8.20
2023-04-21T05:57:31.472Z,8.30
2023-04-21T06:00:00.039Z,8.40
2023-04-21T06:02:29.633Z,8.30
2023-04-21T06:04:58.175Z,8.30
2023-04-21T06:07:26.426Z,8.40
2023-04-21T06:09:54.556Z,8.50
2023-04-21T06:12:22.676Z,8.50
2023-04-21T06:14:50.809Z,8.60
2023-04-21T06:17:19.237Z,8.70
2023-04-21T06:19:53.023Z,8.90
2023-04-21T06:22:21.873Z,10.00
2023-04-21T06:24:49.966Z,10.80
2023-04-21T06:27:18.822Z,11.40
2023-04-21T06:29:46.985Z,11.60
2023-04-21T06:32:15.219Z,12.30
2023-04-21T06:34:43.318Z,12.10
2023-04-21T06:37:12.847Z,11.90
2023-04-21T06:39:40.951Z,12.50
2023-04-21T06:42:09.232Z,13.40
2023-04-21T06:44:38.350Z,12.80
2023-04-21T06:47:06.958Z,13.60
2023-04-21T06:49:37.293Z,14.10
2023-04-21T06:52:05.855Z,13.80
2023-04-21T06:54:35.812Z,13.20
2023-04-21T06:57:04.223Z,13.20
2023-04-21T06:59:32.403Z,14.20
2023-04-21T07:16:24.552Z,17.10
2023-04-21T07:18:53.031Z,17.90
2023-04-21T07:21:21.889Z,17.60
2023-04-21T07:23:50.187Z,17.50
2023-04-21T07:26:18.518Z,17.70
2023-04-21T07:28:46.603Z,17.20
2023-04-21T07:31:14.741Z,17.00
2023-04-21T07:33:44.258Z,17.60
2023-04-21T07:36:12.333Z,18.10
2023-04-21T07:38:43.378Z,18.30
2023-04-21T07:41:12.618Z,18.20
2023-04-21T07:43:41.299Z,18.10
2023-04-21T07:46:09.710Z,18.00
2023-04-21T07:48:37.846Z,17.80
2023-04-21T07:51:07.610Z,17.60
2023-04-21T07:53:35.854Z,17.50
2023-04-21T07:56:04.478Z,17.50
2023-04-21T07:58:32.559Z,17.40
2023-04-21T08:01:00.814Z,16.60
2023-04-21T08:03:29.192Z,16.00
2023-04-21T08:05:57.634Z,16.10
2023-04-21T08:08:27.205Z,16.90
2023-04-21T08:10:55.628Z,17.60
2023-04-21T08:13:25.393Z,18.20
2023-04-21T08:15:53.908Z,17.90
2023-04-21T08:18:23.607Z,16.70
2023-04-21T08:20:52.597Z,15.50
2023-04-21T08:23:20.817Z,15.00
2023-04-21T08:25:50.429Z,15.20
2023-04-21T08:28:18.553Z,15.40
2023-04-21T08:30:46.715Z,15.60
2023-04-21T08:33:14.916Z,15.80
2023-04-21T08:35:54.880Z,15.80
2023-04-21T08:38:23.460Z,15.60
2023-04-21T08:40:52.956Z,15.60
2023-04-21T08:43:21.069Z,15.20
2023-04-21T08:45:49.565Z,14.90
2023-04-21T08:48:21.730Z,14.40
2023-04-21T08:50:50.910Z,14.30
2023-04-21T08:53:19.497Z,14.40
2023-04-21T08:56:03.198Z,14.70
2023-04-21T08:58:41.402Z,14.30
2023-04-21T09:01:09.682Z,14.20
2023-04-21T09:03:37.955Z,14.10
2023-04-21T09:06:08.878Z,14.10
2023-04-21T09:08:40.003Z,14.20
2023-04-21T09:11:08.134Z,14.20
2023-04-21T09:13:37.404Z,14.30
2023-04-21T09:16:17.851Z,14.40
2023-04-21T09:18:46.352Z,14.50
2023-04-21T09:21:16.463Z,14.60
2023-04-21T09:23:45.650Z,14.30
2023-04-21T09:26:14.198Z,14.00
2023-04-21T09:28:43.673Z,13.70
2023-04-21T09:31:18.019Z,13.70
2023-04-21T09:33:57.928Z,14.00
2023-04-21T09:36:29.432Z,14.20
2023-04-21T09:39:24.322Z,14.10
2023-04-21T09:41:46.708Z,14.10
2023-04-21T09:44:15.040Z,14.30
2023-04-21T09:46:45.534Z,14.40
2023-04-21T09:49:17.564Z,14.30
2023-04-21T09:54:29.067Z,14.40
2023-04-21T09:57:01.873Z,14.30
2023-04-21T09:59:33.615Z,14.10
2023-04-21T10:02:07.172Z,13.70
2023-04-21T10:04:37.705Z,13.70
2023-04-21T10:07:06.531Z,13.90
2023-04-21T10:09:40.120Z,14.10
2023-04-21T10:12:09.673Z,14.00
2023-04-21T10:14:38.260Z,14.00
2023-04-21T10:17:09.080Z,13.80
2023-04-21T10:19:40.724Z,14.00
2023-04-21T10:22:10.130Z,13.90
2023-04-21T10:24:40.205Z,14.00
2023-04-21T10:27:12.605Z,14.10
2023-04-21T10:29:55.483Z,14.60
2023-04-21T10:32:42.398Z,14.90
2023-04-21T10:35:11.919Z,15.10
2023-04-21T10:37:42.457Z,15.10
2023-04-21T10:40:44.142Z,14.90
2023-04-21T10:43:49.332Z,14.80
2023-04-21T10:46:34.057Z,14.60
2023-04-21T10:49:13.355Z,14.40
2023-04-21T10:52:09.329Z,14.20
2023-04-21T10:54:45.906Z,14.40
2023-04-21T10:57:16.111Z,14.30
2023-04-21T10:59:45.191Z,14.30
2023-04-21T11:02:15.237Z,14.60
2023-04-21T11:04:48.958Z,14.80
2023-04-21T11:07:19.605Z,14.90
2023-04-21T11:09:48.887Z,15.10
2023-04-21T11:12:19.364Z,15.00
2023-04-21T11:14:49.018Z,15.20
2023-04-21T11:17:18.583Z,15.00
2023-04-21T11:19:48.648Z,15.00
2023-04-21T11:22:18.215Z,15.40
2023-04-21T11:24:47.725Z,15.40
2023-04-21T11:27:16.492Z,15.10
2023-04-21T11:29:46.231Z,15.20
2023-04-21T11:32:15.843Z,15.10
2023-04-21T11:34:44.455Z,15.00
2023-04-21T11:37:17.583Z,14.80
2023-04-21T11:39:45.741Z,14.70
2023-04-21T11:42:21.739Z,14.70
2023-04-21T11:44:49.866Z,15.00
2023-04-21T11:47:19.810Z,15.20
2023-04-21T11:49:49.560Z,15.00
2023-04-21T11:52:27.059Z,15.20
2023-04-21T11:55:00.336Z,15.00
2023-04-21T11:57:28.902Z,15.30
2023-04-21T12:00:00.525Z,15.40
2023-04-21T12:02:31.477Z,15.20
2023-04-21T12:05:05.206Z,15.50
2023-04-21T12:07:36.406Z,15.50
2023-04-21T12:10:11.024Z,15.60
2023-04-21T12:12:39.320Z,15.80
2023-04-21T12:15:08.672Z,15.90
2023-04-21T12:17:39.736Z,15.50
2023-04-21T12:20:09.790Z,15.30
2023-04-21T12:22:39.531Z,15.20
2023-04-21T12:25:08.930Z,15.10
2023-04-21T12:27:37.217Z,15.20
2023-04-21T12:30:06.228Z,15.50
2023-04-21T12:32:34.367Z,15.50
2023-04-21T12:35:04.312Z,15.40
2023-04-21T12:37:32.386Z,15.50
2023-04-21T12:40:01.825Z,15.50
2023-04-21T12:42:29.919Z,15.20
2023-04-21T12:44:58.383Z,15.40
2023-04-21T12:47:26.601Z,15.50
2023-04-21T12:49:55.230Z,15.60
2023-04-21T12:52:23.282Z,15.40
2023-04-21T12:54:51.398Z,15.20
2023-04-21T12:57:21.861Z,15.40
2023-04-21T12:59:49.923Z,15.70
2023-04-21T13:02:18.178Z,15.80
2023-04-21T13:04:49.210Z,15.70
2023-04-21T13:07:21.325Z,15.90
2023-04-21T13:09:49.500Z,15.90
2023-04-21T13:12:17.791Z,15.70
2023-04-21T13:14:47.243Z,15.60
2023-04-21T13:17:17.160Z,15.60
2023-04-21T13:19:45.353Z,15.50
2023-04-21T13:22:14.722Z,15.90
2023-04-21T13:24:42.834Z,16.00
2023-04-21T13:27:11.016Z,16.40
2023-04-21T13:29:39.282Z,16.50
2023-04-21T13:32:09.166Z,16.70
2023-04-21T13:34:37.345Z,16.50
2023-04-21T13:37:06.007Z,16.40
2023-04-21T13:39:34.344Z,16.20
2023-04-21T13:42:02.787Z,16.30
2023-04-21T13:44:31.131Z,16.20
2023-04-21T13:46:59.435Z,16.10
2023-04-21T13:49:29.023Z,16.30
2023-04-21T13:51:57.172Z,16.50
2023-04-21T13:54:27.270Z,16.50
2023-04-21T13:56:55.825Z,16.40
2023-04-21T13:59:23.942Z,16.40
2023-04-21T14:01:52.065Z,16.60
2023-04-21T14:04:21.323Z,16.60
2023-04-21T14:06:51.574Z,16.80
2023-04-21T14:09:19.834Z,16.90
2023-04-21T14:11:48.034Z,16.90
2023-04-21T14:14:24.180Z,17.20
2023-04-21T14:17:00.045Z,17.30
2023-04-21T14:19:28.324Z,17.40
2023-04-21T14:21:57.822Z,17.30
2023-04-21T14:24:28.724Z,17.50
2023-04-21T14:26:57.584Z,17.50
2023-04-21T14:29:25.800Z,17.40
2023-04-21T14:31:57.815Z,17.20
2023-04-21T14:34:26.554Z,17.30
2023-04-21T14:36:55.040Z,17.40
2023-04-21T14:39:24.625Z,17.60
2023-04-21T14:41:52.742Z,17.70
2023-04-21T14:44:20.938Z,17.70
2023-04-21T14:47:01.023Z,17.60
2023-04-21T14:49:37.368Z,17.40
2023-04-21T14:52:06.053Z,17.10
2023-04-21T14:58:16.728Z,17.10
2023-04-21T15:00:44.845Z,17.10
2023-04-21T15:03:13.851Z,17.10
2023-04-21T15:05:42.223Z,17.20
2023-04-21T15:08:11.800Z,17.20
2023-04-21T15:10:39.854Z,17.20
2023-04-21T15:13:08.018Z,17.20
2023-04-21T15:15:37.468Z,17.10
2023-04-21T15:18:05.623Z,17.10
2023-04-21T15:20:43.734Z,17.10
2023-04-21T15:23:13.138Z,17.00
2023-04-21T15:25:41.633Z,17.00
2023-04-21T15:28:10.013Z,17.00
2023-04-21T15:30:42.121Z,16.70
2023-04-21T15:33:11.677Z,16.50
2023-04-21T15:39:30.708Z,17.00
2023-04-21T15:41:59.320Z,16.60
2023-04-21T15:44:27.584Z,16.60
2023-04-21T15:46:57.135Z,16.70
2023-04-21T15:49:26.244Z,16.80
2023-04-21T15:51:54.916Z,17.00
2023-04-21T15:54:23.115Z,16.90
2023-04-21T15:56:51.387Z,17.00
2023-04-21T15:59:19.477Z,17.00
2023-04-21T16:01:47.759Z,16.90
2023-04-21T16:04:17.676Z,16.80
2023-04-21T16:06:46.001Z,16.70
2023-04-21T16:09:14.136Z,16.60
2023-04-21T16:11:42.744Z,16.60
2023-04-21T16:14:11.111Z,16.60
2023-04-21T16:16:39.376Z,16.50
2023-04-21T16:19:07.592Z,16.60
2023-04-21T16:21:37.758Z,16.60
2023-04-21T16:24:07.614Z,16.70
2023-04-21T16:26:36.758Z,16.80
2023-04-21T16:29:05.111Z,16.80
2023-04-21T16:31:33.178Z,16.90
2023-04-21T16:34:01.372Z,16.90
2023-04-21T16:36:31.188Z,17.00
2023-04-21T16:39:00.762Z,16.90
2023-04-21T16:53:01.615Z,16.80
2023-04-21T16:55:31.464Z,16.80
2023-04-21T16:58:00.700Z,16.80
2023-04-21T17:00:30.113Z,16.80
2023-04-21T17:02:58.753Z,16.90
2023-04-21T17:05:27.047Z,17.10
2023-04-21T17:07:55.107Z,17.00
2023-04-21T17:10:23.209Z,17.20
2023-04-21T17:12:52.610Z,17.00
2023-04-21T17:15:20.870Z,16.90
2023-04-21T17:17:49.587Z,16.90
2023-04-21T17:20:17.769Z,16.80
2023-04-21T17:22:46.353Z,16.70
2023-04-21T17:25:14.509Z,16.70
2023-04-21T17:27:43.174Z,16.70
2023-04-21T17:30:13.147Z,16.60
2023-04-21T17:32:41.689Z,16.70
2023-04-21T17:35:10.342Z,16.70
2023-04-21T17:37:38.703Z,15.90
2023-04-21T17:40:09.630Z,14.40
2023-04-21T17:42:37.807Z,13.20
2023-04-21T17:45:07.599Z,12.60
2023-04-21T17:47:37.227Z,12.20
2023-04-21T17:50:06.319Z,12.00
2023-04-21T17:52:34.448Z,11.90
2023-04-21T17:55:02.522Z,11.90
2023-04-21T17:57:30.883Z,11.90
2023-04-21T17:59:59.357Z,12.00
2023-04-21T18:02:27.904Z,12.10
2023-04-21T18:04:57.718Z,12.30
2023-04-21T18:07:26.135Z,12.40
2023-04-21T18:09:54.241Z,12.10
2023-04-21T18:12:22.330Z,11.70
2023-04-21T18:14:51.410Z,11.40
2023-04-21T18:17:19.570Z,11.20
2023-04-21T18:19:47.998Z,11.10
2023-04-21T18:22:17.472Z,11.20
2023-04-21T18:24:45.850Z,11.20
2023-04-21T18:27:14.000Z,11.10
2023-04-21T18:29:42.097Z,11.10
2023-04-21T18:32:10.242Z,11.00
2023-04-21T18:34:39.163Z,11.00
2023-04-21T18:37:07.440Z,11.00
2023-04-21T18:39:36.906Z,11.00
2023-04-21T18:42:05.507Z,10.90
2023-04-21T18:44:33.799Z,10.90
2023-04-21T18:47:01.873Z,10.90
2023-04-21T18:49:30.045Z,11.00
2023-04-21T18:51:58.135Z,11.00
2023-04-21T18:54:26.231Z,10.80
2023-04-21T18:56:55.667Z,10.80
2023-04-21T18:59:23.753Z,10.80
2023-04-21T19:01:52.106Z,10.70
2023-04-21T19:04:20.469Z,10.70
2023-04-21T19:06:49.573Z,10.70
2023-04-21T19:09:18.070Z,10.60
2023-04-21T19:11:46.391Z,10.50
2023-04-21T19:14:15.965Z,10.50
2023-04-21T19:16:44.102Z,10.50
2023-04-21T19:19:12.505Z,10.40
2023-04-21T19:21:40.536Z,10.40
2023-04-21T19:24:08.651Z,10.30
2023-04-21T19:26:37.047Z,10.40
2023-04-21T19:29:08.619Z,10.40
2023-04-21T19:31:38.045Z,10.40
2023-04-21T19:34:06.827Z,10.40
2023-04-21T19:36:35.415Z,10.40
2023-04-21T19:39:04.063Z,10.40
2023-04-21T19:41:32.112Z,10.50
2023-04-21T19:44:00.811Z,10.50
2023-04-21T19:46:29.592Z,10.40
2023-04-21T19:48:59.294Z,10.40
2023-04-21T19:51:27.902Z,10.50
2023-04-21T19:54:07.880Z,10.50
2023-04-21T19:56:39.268Z,10.60
2023-04-21T19:59:07.840Z,10.80
2023-04-21T20:01:36.162Z,10.80
2023-04-21T20:04:06.769Z,10.90
2023-04-21T20:06:35.473Z,11.00
2023-04-21T20:09:06.024Z,11.00
2023-04-21T20:11:34.777Z,11.00
2023-04-21T20:14:03.167Z,11.00
2023-04-21T20:16:31.765Z,11.00
2023-04-21T20:19:00.011Z,10.90
2023-04-21T20:21:29.567Z,11.00
2023-04-21T20:23:57.645Z,10.90
2023-04-21T20:26:25.982Z,10.90
2023-04-21T20:28:54.213Z,11.00
2023-04-21T20:31:25.469Z,10.90
2023-04-21T20:33:53.834Z,11.00
2023-04-21T20:36:21.940Z,11.00
2023-04-21T20:38:51.534Z,11.00
2023-04-21T20:41:23.375Z,11.10
2023-04-21T20:43:51.965Z,11.10
2023-04-21T20:46:20.191Z,11.10
2023-04-21T20:48:48.272Z,11.00
2023-04-21T20:51:16.336Z,11.00
2023-04-21T20:53:44.460Z,10.90
2023-04-21T20:56:14.616Z,10.80
2023-04-21T20:58:42.754Z,10.80
2023-04-21T21:01:10.864Z,10.70
2023-04-21T21:03:39.150Z,10.60
2023-04-21T21:06:07.678Z,10.60
2023-04-21T21:08:35.937Z,10.50
2023-04-21T21:11:04.379Z,10.40
2023-04-21T21:13:33.845Z,10.40
2023-04-21T21:16:01.937Z,10.40
2023-04-21T21:18:34.533Z,10.30
2023-04-21T21:21:02.781Z,10.30
2023-04-21T21:23:32.781Z,10.30
2023-04-21T21:26:01.497Z,10.30
2023-04-21T21:32:22.115Z,10.20
2023-04-21T21:34:52.165Z,10.10
2023-04-21T21:37:21.234Z,10.00
2023-04-21T21:39:49.556Z,10.00
2023-04-21T21:42:17.863Z,9.90
2023-04-21T21:44:45.980Z,9.90
2023-04-21T21:47:14.148Z,9.80
2023-04-21T21:49:43.980Z,9.90
2023-04-21T21:52:12.289Z,9.80
2023-04-21T21:54:40.332Z,9.70
2023-04-21T21:57:08.667Z,9.80
2023-04-21T21:59:37.176Z,9.80
2023-04-21T22:02:05.509Z,9.80
2023-04-21T22:04:33.708Z,9.80
2023-04-21T22:07:03.968Z,9.70
2023-04-21T22:09:32.291Z,9.70
2023-04-21T22:12:00.977Z,9.50
2023-04-21T22:14:29.974Z,9.50
2023-04-21T22:16:59.016Z,9.40
2023-04-21T22:19:27.238Z,9.30
2023-04-21T22:21:55.444Z,9.20
2023-04-21T22:24:25.038Z,9.10
2023-04-21T22:26:53.262Z,9.10
2023-04-21T22:29:21.336Z,9.10
2023-04-21T22:31:49.475Z,9.00
2023-04-21T22:34:19.714Z,9.00
2023-04-21T22:36:47.910Z,8.90
2023-04-21T22:39:16.152Z,8.90
2023-04-21T22:41:45.749Z,8.80
2023-04-21T22:44:14.393Z,8.70
2023-04-21T22:46:42.971Z,8.70
2023-04-21T22:49:11.120Z,8.80
2023-04-21T22:51:39.216Z,8.80
2023-04-21T22:54:07.287Z,8.90
2023-04-21T22:56:35.428Z,8.90
2023-04-21T22:59:04.948Z,9.00
2023-04-21T23:01:33.103Z,9.10
2023-04-21T23:04:01.381Z,9.10
2023-04-21T23:06:29.545Z,9.10
2023-04-21T23:08:57.658Z,9.10
2023-04-21T23:11:25.948Z,9.20
2023-04-21T23:13:54.076Z,9.20
2023-04-21T23:16:23.660Z,9.30
2023-04-21T23:18:51.809Z,9.30
2023-04-21T23:21:19.883Z,9.20
2023-04-21T23:23:48.014Z,9.10
2023-04-21T23:26:16.082Z,9.00
2023-04-21T23:28:44.163Z,8.80
2023-04-21T23:31:12.561Z,8.80
2023-04-21T23:33:41.992Z,8.60
2023-04-21T23:36:10.206Z,8.60
2023-04-21T23:38:38.295Z,8.50
2023-04-21T23:41:06.605Z,8.50
2023-04-21T23:43:37.166Z,8.40
2023-04-21T23:46:05.388Z,8.40
2023-04-21T23:48:34.299Z,8.60
2023-04-21T23:51:03.815Z,8.60
2023-04-21T23:53:31.908Z,8.40
2023-04-21T23:56:00.165Z,8.60
2023-04-21T23:58:28.259Z,8.60
